sensor_id;sensor_type;location;lat;lon;timestamp;temperature;humidity
18779;DHT22;9518;51.720;14.384;2023-12-20T00:02:17;5.50;99.90
18779;DHT22;9518;51.720;14.384;2023-12-20T00:04:44;5.50;99.90
18779;DHT22;9518;51.720;14.384;2023-12-20T00:07:11;5.50;99.90
18779;DHT22;9518;51.720;14.384;2023-12-20T00:09:38;5.50;99.90
18779;DHT22;9518;51.720;14.384;2023-12-20T00:12:06;5.50;99.90
18779;DHT22;9518;51.720;14.384;2023-12-20T00:14:42;5.50;99.90
18779;DHT22;9518;51.720;14.384;2023-12-20T00:17:09;5.50;99.90
18779;DHT22;9518;51.720;14.384;2023-12-20T00:19:36;5.50;99.90
18779;DHT22;9518;51.720;14.384;2023-12-20T00:22:04;5.50;99.90
18779;DHT22;9518;51.720;14.384;2023-12-20T00:24:31;5.50;99.90
18779;DHT22;9518;51.720;14.384;2023-12-20T00:26:58;5.50;99.90
18779;DHT22;9518;51.720;14.384;2023-12-20T00:29:25;5.50;99.90
18779;DHT22;9518;51.720;14.384;2023-12-20T00:31:55;5.50;99.90
18779;DHT22;9518;51.720;14.384;2023-12-20T00:34:22;5.50;99.90
18779;DHT22;9518;51.720;14.384;2023-12-20T00:36:49;5.50;99.90
18779;DHT22;9518;51.720;14.384;2023-12-20T00:39:16;5.50;99.90
18779;DHT22;9518;51.720;14.384;2023-12-20T00:41:42;5.50;99.90
18779;DHT22;9518;51.720;14.384;2023-12-20T00:44:09;5.50;99.90
18779;DHT22;9518;51.720;14.384;2023-12-20T00:46:36;5.50;99.90
18779;DHT22;9518;51.720;14.384;2023-12-20T00:49:05;5.50;99.90
18779;DHT22;9518;51.720;14.384;2023-12-20T00:51:32;5.50;99.90
18779;DHT22;9518;51.720;14.384;2023-12-20T00:53:59;5.50;99.90
18779;DHT22;9518;51.720;14.384;2023-12-20T00:56:26;5.50;99.90
18779;DHT22;9518;51.720;14.384;2023-12-20T00:58:55;5.50;99.90
18779;DHT22;9518;51.720;14.384;2023-12-20T01:01:22;5.50;99.90
18779;DHT22;9518;51.720;14.384;2023-12-20T01:03:49;5.50;99.90
18779;DHT22;9518;51.720;14.384;2023-12-20T01:06:18;5.50;99.90
18779;DHT22;9518;51.720;14.384;2023-12-20T01:08:45;5.50;99.90
18779;DHT22;9518;51.720;14.384;2023-12-20T01:11:15;5.50;99.90
18779;DHT22;9518;51.720;14.384;2023-12-20T01:13:42;5.50;99.90
18779;DHT22;9518;51.720;14.384;2023-12-20T01:16:10;5.50;99.90
18779;DHT22;9518;51.720;14.384;2023-12-20T01:18:37;5.50;99.90
18779;DHT22;9518;51.720;14.384;2023-12-20T01:21:05;5.50;99.90
18779;DHT22;9518;51.720;14.384;2023-12-20T01:23:34;5.40;99.90
18779;DHT22;9518;51.720;14.384;2023-12-20T01:26:01;5.40;99.90
18779;DHT22;9518;51.720;14.384;2023-12-20T01:28:29;5.40;99.90
18779;DHT22;9518;51.720;14.384;2023-12-20T01:30:59;5.40;99.90
18779;DHT22;9518;51.720;14.384;2023-12-20T01:33:26;5.40;99.90
18779;DHT22;9518;51.720;14.384;2023-12-20T01:35:53;5.40;99.90
18779;DHT22;9518;51.720;14.384;2023-12-20T01:38:20;5.40;99.90
18779;DHT22;9518;51.720;14.384;2023-12-20T01:40:48;5.40;99.90
18779;DHT22;9518;51.720;14.384;2023-12-20T01:43:16;5.40;99.90
18779;DHT22;9518;51.720;14.384;2023-12-20T01:45:42;5.40;99.90
18779;DHT22;9518;51.720;14.384;2023-12-20T01:48:10;5.40;99.90
18779;DHT22;9518;51.720;14.384;2023-12-20T01:50:37;5.40;99.90
18779;DHT22;9518;51.720;14.384;2023-12-20T01:53:05;5.30;99.90
18779;DHT22;9518;51.720;14.384;2023-12-20T01:55:37;5.30;99.90
18779;DHT22;9518;51.720;14.384;2023-12-20T01:58:07;5.30;99.90
18779;DHT22;9518;51.720;14.384;2023-12-20T02:00:36;5.40;99.90
18779;DHT22;9518;51.720;14.384;2023-12-20T02:03:04;5.30;99.90
18779;DHT22;9518;51.720;14.384;2023-12-20T02:05:32;5.30;99.90
18779;DHT22;9518;51.720;14.384;2023-12-20T02:07:59;5.30;99.90
18779;DHT22;9518;51.720;14.384;2023-12-20T02:10:27;5.30;99.90
18779;DHT22;9518;51.720;14.384;2023-12-20T02:12:54;5.30;99.90
18779;DHT22;9518;51.720;14.384;2023-12-20T02:15:23;5.30;99.90
18779;DHT22;9518;51.720;14.384;2023-12-20T02:17:50;5.30;99.90
18779;DHT22;9518;51.720;14.384;2023-12-20T02:20:17;5.30;99.90
18779;DHT22;9518;51.720;14.384;2023-12-20T02:22:46;5.30;99.90
18779;DHT22;9518;51.720;14.384;2023-12-20T02:25:14;5.30;99.90
18779;DHT22;9518;51.720;14.384;2023-12-20T02:27:41;5.30;99.90
18779;DHT22;9518;51.720;14.384;2023-12-20T02:30:09;5.30;99.90
18779;DHT22;9518;51.720;14.384;2023-12-20T02:32:37;5.30;99.90
18779;DHT22;9518;51.720;14.384;2023-12-20T02:35:05;5.20;99.90
18779;DHT22;9518;51.720;14.384;2023-12-20T02:37:33;5.20;99.90
18779;DHT22;9518;51.720;14.384;2023-12-20T02:40:01;5.30;99.90
18779;DHT22;9518;51.720;14.384;2023-12-20T02:42:30;5.30;99.90
18779;DHT22;9518;51.720;14.384;2023-12-20T02:44:57;5.20;99.90
18779;DHT22;9518;51.720;14.384;2023-12-20T02:47:24;5.30;99.90
18779;DHT22;9518;51.720;14.384;2023-12-20T02:49:51;5.30;99.90
18779;DHT22;9518;51.720;14.384;2023-12-20T02:52:18;5.30;99.90
18779;DHT22;9518;51.720;14.384;2023-12-20T02:54:45;5.20;99.90
18779;DHT22;9518;51.720;14.384;2023-12-20T02:57:14;5.30;99.90
18779;DHT22;9518;51.720;14.384;2023-12-20T02:59:41;5.30;99.90
18779;DHT22;9518;51.720;14.384;2023-12-20T03:02:08;5.30;99.90
18779;DHT22;9518;51.720;14.384;2023-12-20T03:04:35;5.30;99.90
18779;DHT22;9518;51.720;14.384;2023-12-20T03:07:02;5.20;99.90
18779;DHT22;9518;51.720;14.384;2023-12-20T03:09:29;5.20;99.90
18779;DHT22;9518;51.720;14.384;2023-12-20T03:11:56;5.20;99.90
18779;DHT22;9518;51.720;14.384;2023-12-20T03:14:25;5.20;99.90
18779;DHT22;9518;51.720;14.384;2023-12-20T03:16:52;5.20;99.90
18779;DHT22;9518;51.720;14.384;2023-12-20T03:19:19;5.20;99.90
18779;DHT22;9518;51.720;14.384;2023-12-20T03:21:46;5.20;99.90
18779;DHT22;9518;51.720;14.384;2023-12-20T03:24:13;5.20;99.90
18779;DHT22;9518;51.720;14.384;2023-12-20T03:26:39;5.20;99.90
18779;DHT22;9518;51.720;14.384;2023-12-20T03:29:06;5.20;99.90
18779;DHT22;9518;51.720;14.384;2023-12-20T03:31:35;5.20;99.90
18779;DHT22;9518;51.720;14.384;2023-12-20T03:34:02;5.20;99.90
18779;DHT22;9518;51.720;14.384;2023-12-20T03:36:29;5.20;99.90
18779;DHT22;9518;51.720;14.384;2023-12-20T03:38:56;5.20;99.90
18779;DHT22;9518;51.720;14.384;2023-12-20T03:41:23;5.20;99.90
18779;DHT22;9518;51.720;14.384;2023-12-20T03:43:50;5.20;99.90
18779;DHT22;9518;51.720;14.384;2023-12-20T03:46:17;5.20;99.90
18779;DHT22;9518;51.720;14.384;2023-12-20T03:48:45;5.20;99.90
18779;DHT22;9518;51.720;14.384;2023-12-20T03:51:12;5.20;99.90
18779;DHT22;9518;51.720;14.384;2023-12-20T03:53:39;5.20;99.90
18779;DHT22;9518;51.720;14.384;2023-12-20T03:56:06;5.20;99.90
18779;DHT22;9518;51.720;14.384;2023-12-20T03:58:33;5.20;99.90
18779;DHT22;9518;51.720;14.384;2023-12-20T04:01:00;5.20;99.90
18779;DHT22;9518;51.720;14.384;2023-12-20T04:03:28;5.20;99.90
18779;DHT22;9518;51.720;14.384;2023-12-20T04:05:56;5.20;99.90
18779;DHT22;9518;51.720;14.384;2023-12-20T04:08:23;5.20;99.90
18779;DHT22;9518;51.720;14.384;2023-12-20T04:10:50;5.20;99.90
18779;DHT22;9518;51.720;14.384;2023-12-20T04:13:17;5.20;99.90
18779;DHT22;9518;51.720;14.384;2023-12-20T04:15:44;5.20;99.90
18779;DHT22;9518;51.720;14.384;2023-12-20T04:18:11;5.20;99.90
18779;DHT22;9518;51.720;14.384;2023-12-20T04:20:38;5.20;99.90
18779;DHT22;9518;51.720;14.384;2023-12-20T04:23:07;5.20;99.90
18779;DHT22;9518;51.720;14.384;2023-12-20T04:25:34;5.20;99.90
18779;DHT22;9518;51.720;14.384;2023-12-20T04:28:02;5.20;99.90
18779;DHT22;9518;51.720;14.384;2023-12-20T04:30:29;5.20;99.90
18779;DHT22;9518;51.720;14.384;2023-12-20T04:32:56;5.20;99.90
18779;DHT22;9518;51.720;14.384;2023-12-20T04:35:23;5.20;99.90
18779;DHT22;9518;51.720;14.384;2023-12-20T04:37:51;5.20;99.90
18779;DHT22;9518;51.720;14.384;2023-12-20T04:40:19;5.20;99.90
18779;DHT22;9518;51.720;14.384;2023-12-20T04:42:46;5.20;99.90
18779;DHT22;9518;51.720;14.384;2023-12-20T04:45:13;5.20;99.90
18779;DHT22;9518;51.720;14.384;2023-12-20T04:47:41;5.20;99.90
18779;DHT22;9518;51.720;14.384;2023-12-20T04:50:09;5.20;99.90
18779;DHT22;9518;51.720;14.384;2023-12-20T04:52:38;5.20;99.90
18779;DHT22;9518;51.720;14.384;2023-12-20T04:55:06;5.20;99.90
18779;DHT22;9518;51.720;14.384;2023-12-20T04:57:35;5.20;99.90
18779;DHT22;9518;51.720;14.384;2023-12-20T05:00:03;5.20;99.90
18779;DHT22;9518;51.720;14.384;2023-12-20T05:02:30;5.10;99.90
18779;DHT22;9518;51.720;14.384;2023-12-20T05:04:57;5.20;99.90
18779;DHT22;9518;51.720;14.384;2023-12-20T05:07:24;5.20;99.90
18779;DHT22;9518;51.720;14.384;2023-12-20T05:09:51;5.20;99.90
18779;DHT22;9518;51.720;14.384;2023-12-20T05:12:19;5.20;99.90
18779;DHT22;9518;51.720;14.384;2023-12-20T05:14:47;5.20;99.90
18779;DHT22;9518;51.720;14.384;2023-12-20T05:17:14;5.20;99.90
18779;DHT22;9518;51.720;14.384;2023-12-20T05:19:41;5.20;99.90
18779;DHT22;9518;51.720;14.384;2023-12-20T05:22:09;5.20;99.90
18779;DHT22;9518;51.720;14.384;2023-12-20T05:24:36;5.20;99.90
18779;DHT22;9518;51.720;14.384;2023-12-20T05:27:04;5.20;99.90
18779;DHT22;9518;51.720;14.384;2023-12-20T05:29:33;5.20;99.90
18779;DHT22;9518;51.720;14.384;2023-12-20T05:32:02;5.20;99.90
18779;DHT22;9518;51.720;14.384;2023-12-20T05:34:30;5.20;99.90
18779;DHT22;9518;51.720;14.384;2023-12-20T05:36:57;5.20;99.90
18779;DHT22;9518;51.720;14.384;2023-12-20T05:39:24;5.20;99.90
18779;DHT22;9518;51.720;14.384;2023-12-20T05:41:54;5.10;99.90
18779;DHT22;9518;51.720;14.384;2023-12-20T05:44:21;5.10;99.90
18779;DHT22;9518;51.720;14.384;2023-12-20T05:46:48;5.10;99.90
18779;DHT22;9518;51.720;14.384;2023-12-20T05:49:16;5.10;99.90
18779;DHT22;9518;51.720;14.384;2023-12-20T05:51:43;5.10;99.90
18779;DHT22;9518;51.720;14.384;2023-12-20T05:54:10;5.10;99.90
18779;DHT22;9518;51.720;14.384;2023-12-20T05:56:37;5.00;99.90
18779;DHT22;9518;51.720;14.384;2023-12-20T05:59:04;5.00;99.90
18779;DHT22;9518;51.720;14.384;2023-12-20T06:01:31;5.00;99.90
18779;DHT22;9518;51.720;14.384;2023-12-20T06:03:59;5.00;99.90
18779;DHT22;9518;51.720;14.384;2023-12-20T06:06:27;5.00;99.90
18779;DHT22;9518;51.720;14.384;2023-12-20T06:08:54;5.00;99.90
18779;DHT22;9518;51.720;14.384;2023-12-20T06:11:21;4.90;99.90
18779;DHT22;9518;51.720;14.384;2023-12-20T06:13:48;4.90;99.90
18779;DHT22;9518;51.720;14.384;2023-12-20T06:16:18;4.90;99.90
18779;DHT22;9518;51.720;14.384;2023-12-20T06:18:45;4.90;99.90
18779;DHT22;9518;51.720;14.384;2023-12-20T06:21:12;4.90;99.90
18779;DHT22;9518;51.720;14.384;2023-12-20T06:23:41;4.90;99.90
18779;DHT22;9518;51.720;14.384;2023-12-20T06:26:08;4.80;99.90
18779;DHT22;9518;51.720;14.384;2023-12-20T06:28:35;4.80;99.90
18779;DHT22;9518;51.720;14.384;2023-12-20T06:31:03;4.80;99.90
18779;DHT22;9518;51.720;14.384;2023-12-20T06:33:30;4.70;99.90
18779;DHT22;9518;51.720;14.384;2023-12-20T06:35:57;4.70;99.90
18779;DHT22;9518;51.720;14.384;2023-12-20T06:38:24;4.70;99.90
18779;DHT22;9518;51.720;14.384;2023-12-20T06:40:53;4.60;99.90
18779;DHT22;9518;51.720;14.384;2023-12-20T06:43:22;4.60;99.90
18779;DHT22;9518;51.720;14.384;2023-12-20T06:45:49;4.50;99.90
18779;DHT22;9518;51.720;14.384;2023-12-20T06:48:17;4.50;99.90
18779;DHT22;9518;51.720;14.384;2023-12-20T06:50:44;4.50;99.90
18779;DHT22;9518;51.720;14.384;2023-12-20T06:53:11;4.40;99.90
18779;DHT22;9518;51.720;14.384;2023-12-20T06:55:38;4.40;99.90
18779;DHT22;9518;51.720;14.384;2023-12-20T06:58:06;4.40;99.90
18779;DHT22;9518;51.720;14.384;2023-12-20T07:00:34;4.30;99.90
18779;DHT22;9518;51.720;14.384;2023-12-20T07:03:01;4.30;99.90
18779;DHT22;9518;51.720;14.384;2023-12-20T07:05:29;4.30;99.90
18779;DHT22;9518;51.720;14.384;2023-12-20T07:07:56;4.30;99.90
18779;DHT22;9518;51.720;14.384;2023-12-20T07:10:23;4.20;99.90
18779;DHT22;9518;51.720;14.384;2023-12-20T07:12:50;4.20;99.90
18779;DHT22;9518;51.720;14.384;2023-12-20T07:15:19;4.20;99.90
18779;DHT22;9518;51.720;14.384;2023-12-20T07:17:46;4.20;99.90
18779;DHT22;9518;51.720;14.384;2023-12-20T07:20:13;4.30;99.90
18779;DHT22;9518;51.720;14.384;2023-12-20T07:22:40;4.30;99.90
18779;DHT22;9518;51.720;14.384;2023-12-20T07:25:07;4.40;99.90
18779;DHT22;9518;51.720;14.384;2023-12-20T07:27:34;4.40;99.90
18779;DHT22;9518;51.720;14.384;2023-12-20T07:30:01;4.40;99.90
18779;DHT22;9518;51.720;14.384;2023-12-20T07:32:29;4.40;99.90
18779;DHT22;9518;51.720;14.384;2023-12-20T07:34:57;4.40;99.90
18779;DHT22;9518;51.720;14.384;2023-12-20T07:37:24;4.40;99.90
18779;DHT22;9518;51.720;14.384;2023-12-20T07:39:51;4.30;99.90
18779;DHT22;9518;51.720;14.384;2023-12-20T07:42:18;4.30;99.90
18779;DHT22;9518;51.720;14.384;2023-12-20T07:44:45;4.30;99.90
18779;DHT22;9518;51.720;14.384;2023-12-20T07:47:12;4.40;99.90
18779;DHT22;9518;51.720;14.384;2023-12-20T07:49:43;4.40;99.90
18779;DHT22;9518;51.720;14.384;2023-12-20T07:52:10;4.30;99.90
18779;DHT22;9518;51.720;14.384;2023-12-20T07:54:38;4.40;99.90
18779;DHT22;9518;51.720;14.384;2023-12-20T07:57:05;4.40;99.90
18779;DHT22;9518;51.720;14.384;2023-12-20T07:59:32;4.40;99.90
18779;DHT22;9518;51.720;14.384;2023-12-20T08:01:59;4.50;99.90
18779;DHT22;9518;51.720;14.384;2023-12-20T08:04:26;4.40;99.90
18779;DHT22;9518;51.720;14.384;2023-12-20T08:06:54;4.40;99.90
18779;DHT22;9518;51.720;14.384;2023-12-20T08:09:21;4.40;99.90
18779;DHT22;9518;51.720;14.384;2023-12-20T08:11:48;4.50;99.90
18779;DHT22;9518;51.720;14.384;2023-12-20T08:14:16;4.50;99.90
18779;DHT22;9518;51.720;14.384;2023-12-20T08:16:43;4.60;99.90
18779;DHT22;9518;51.720;14.384;2023-12-20T08:19:10;4.70;99.90
18779;DHT22;9518;51.720;14.384;2023-12-20T08:21:37;4.70;99.90
18779;DHT22;9518;51.720;14.384;2023-12-20T08:24:07;4.80;99.90
18779;DHT22;9518;51.720;14.384;2023-12-20T08:26:34;4.90;99.90
18779;DHT22;9518;51.720;14.384;2023-12-20T08:29:01;5.00;99.90
18779;DHT22;9518;51.720;14.384;2023-12-20T08:31:28;5.10;99.90
18779;DHT22;9518;51.720;14.384;2023-12-20T08:33:55;5.10;99.90
18779;DHT22;9518;51.720;14.384;2023-12-20T08:36:22;5.10;99.90
18779;DHT22;9518;51.720;14.384;2023-12-20T08:38:49;5.00;99.90
18779;DHT22;9518;51.720;14.384;2023-12-20T08:41:18;5.00;99.90
18779;DHT22;9518;51.720;14.384;2023-12-20T08:43:46;5.00;99.90
18779;DHT22;9518;51.720;14.384;2023-12-20T08:46:14;4.90;99.90
18779;DHT22;9518;51.720;14.384;2023-12-20T08:48:41;5.00;99.90
18779;DHT22;9518;51.720;14.384;2023-12-20T08:51:08;4.90;99.90
18779;DHT22;9518;51.720;14.384;2023-12-20T08:53:36;5.00;99.90
18779;DHT22;9518;51.720;14.384;2023-12-20T08:56:04;4.90;99.90
18779;DHT22;9518;51.720;14.384;2023-12-20T08:58:32;5.00;99.90
18779;DHT22;9518;51.720;14.384;2023-12-20T09:01:01;5.00;99.90
18779;DHT22;9518;51.720;14.384;2023-12-20T09:03:28;5.00;99.90
18779;DHT22;9518;51.720;14.384;2023-12-20T09:05:55;5.00;99.90
18779;DHT22;9518;51.720;14.384;2023-12-20T09:08:22;5.00;99.90
18779;DHT22;9518;51.720;14.384;2023-12-20T09:10:49;5.00;99.90
18779;DHT22;9518;51.720;14.384;2023-12-20T09:13:17;5.00;99.90
18779;DHT22;9518;51.720;14.384;2023-12-20T09:15:46;5.00;99.90
18779;DHT22;9518;51.720;14.384;2023-12-20T09:18:13;5.10;99.90
18779;DHT22;9518;51.720;14.384;2023-12-20T09:20:40;5.10;99.90
18779;DHT22;9518;51.720;14.384;2023-12-20T09:23:06;5.30;99.90
18779;DHT22;9518;51.720;14.384;2023-12-20T09:25:33;5.40;99.90
18779;DHT22;9518;51.720;14.384;2023-12-20T09:28:00;5.50;99.90
18779;DHT22;9518;51.720;14.384;2023-12-20T09:30:27;5.50;99.90
18779;DHT22;9518;51.720;14.384;2023-12-20T09:35:29;5.50;99.90
18779;DHT22;9518;51.720;14.384;2023-12-20T09:37:56;5.40;99.90
18779;DHT22;9518;51.720;14.384;2023-12-20T09:40:26;5.40;99.90
18779;DHT22;9518;51.720;14.384;2023-12-20T09:42:56;5.40;99.90
18779;DHT22;9518;51.720;14.384;2023-12-20T09:45:24;5.40;99.90
18779;DHT22;9518;51.720;14.384;2023-12-20T09:47:52;5.40;99.90
18779;DHT22;9518;51.720;14.384;2023-12-20T09:50:21;5.50;99.90
18779;DHT22;9518;51.720;14.384;2023-12-20T09:52:51;5.50;99.90
18779;DHT22;9518;51.720;14.384;2023-12-20T09:55:20;5.60;99.90
18779;DHT22;9518;51.720;14.384;2023-12-20T09:57:48;5.60;99.90
18779;DHT22;9518;51.720;14.384;2023-12-20T10:00:16;5.70;99.90
18779;DHT22;9518;51.720;14.384;2023-12-20T10:02:50;5.80;99.90
18779;DHT22;9518;51.720;14.384;2023-12-20T10:05:27;5.90;99.90
18779;DHT22;9518;51.720;14.384;2023-12-20T10:07:56;6.00;99.90
18779;DHT22;9518;51.720;14.384;2023-12-20T10:10:23;6.00;99.90
18779;DHT22;9518;51.720;14.384;2023-12-20T10:13:04;6.10;99.90
18779;DHT22;9518;51.720;14.384;2023-12-20T10:15:32;6.10;99.90
18779;DHT22;9518;51.720;14.384;2023-12-20T10:18:00;6.00;99.90
18779;DHT22;9518;51.720;14.384;2023-12-20T10:20:28;6.00;99.90
18779;DHT22;9518;51.720;14.384;2023-12-20T10:23:01;5.90;99.90
18779;DHT22;9518;51.720;14.384;2023-12-20T10:25:28;5.80;99.90
18779;DHT22;9518;51.720;14.384;2023-12-20T10:28:10;5.80;99.90
18779;DHT22;9518;51.720;14.384;2023-12-20T10:30:40;5.80;99.90
18779;DHT22;9518;51.720;14.384;2023-12-20T10:33:08;5.80;99.90
18779;DHT22;9518;51.720;14.384;2023-12-20T10:35:35;5.80;99.90
18779;DHT22;9518;51.720;14.384;2023-12-20T10:38:07;6.00;99.90
18779;DHT22;9518;51.720;14.384;2023-12-20T10:40:35;6.20;99.90
18779;DHT22;9518;51.720;14.384;2023-12-20T10:43:07;6.50;99.90
18779;DHT22;9518;51.720;14.384;2023-12-20T10:45:35;6.70;99.90
18779;DHT22;9518;51.720;14.384;2023-12-20T10:48:03;6.70;99.90
18779;DHT22;9518;51.720;14.384;2023-12-20T10:50:31;6.70;99.90
18779;DHT22;9518;51.720;14.384;2023-12-20T10:52:59;6.70;99.90
18779;DHT22;9518;51.720;14.384;2023-12-20T10:55:28;6.60;99.90
18779;DHT22;9518;51.720;14.384;2023-12-20T10:58:01;6.60;99.90
18779;DHT22;9518;51.720;14.384;2023-12-20T11:00:29;6.80;99.90
18779;DHT22;9518;51.720;14.384;2023-12-20T11:03:00;6.80;99.90
18779;DHT22;9518;51.720;14.384;2023-12-20T11:05:36;6.90;99.90
18779;DHT22;9518;51.720;14.384;2023-12-20T11:08:09;6.90;99.90
18779;DHT22;9518;51.720;14.384;2023-12-20T11:10:54;6.90;99.90
18779;DHT22;9518;51.720;14.384;2023-12-20T11:13:26;6.90;99.90
18779;DHT22;9518;51.720;14.384;2023-12-20T11:15:56;6.90;99.90
18779;DHT22;9518;51.720;14.384;2023-12-20T11:18:29;6.90;1.00
18779;DHT22;9518;51.720;14.384;2023-12-20T11:21:01;6.90;1.00
18779;DHT22;9518;51.720;14.384;2023-12-20T11:23:30;6.70;1.00
18779;DHT22;9518;51.720;14.384;2023-12-20T11:26:00;6.70;1.00
18779;DHT22;9518;51.720;14.384;2023-12-20T11:28:28;6.70;99.90
18779;DHT22;9518;51.720;14.384;2023-12-20T11:30:57;6.70;2.20
18779;DHT22;9518;51.720;14.384;2023-12-20T11:33:27;6.70;1.00
18779;DHT22;9518;51.720;14.384;2023-12-20T11:35:56;6.80;99.90
18779;DHT22;9518;51.720;14.384;2023-12-20T11:38:25;6.80;1.00
18779;DHT22;9518;51.720;14.384;2023-12-20T11:40:54;6.80;1.00
18779;DHT22;9518;51.720;14.384;2023-12-20T11:43:34;6.80;99.90
18779;DHT22;9518;51.720;14.384;2023-12-20T11:46:06;6.70;1.00
18779;DHT22;9518;51.720;14.384;2023-12-20T11:48:35;6.70;1.00
18779;DHT22;9518;51.720;14.384;2023-12-20T11:51:08;6.70;1.00
18779;DHT22;9518;51.720;14.384;2023-12-20T11:53:36;6.70;1.00
18779;DHT22;9518;51.720;14.384;2023-12-20T11:56:04;6.70;1.00
18779;DHT22;9518;51.720;14.384;2023-12-20T11:58:34;6.70;99.90
18779;DHT22;9518;51.720;14.384;2023-12-20T12:01:01;6.70;99.90
18779;DHT22;9518;51.720;14.384;2023-12-20T12:03:33;6.80;1.00
18779;DHT22;9518;51.720;14.384;2023-12-20T12:06:00;6.80;1.00
18779;DHT22;9518;51.720;14.384;2023-12-20T12:08:29;6.80;1.00
18779;DHT22;9518;51.720;14.384;2023-12-20T12:10:57;6.80;1.00
18779;DHT22;9518;51.720;14.384;2023-12-20T12:13:25;6.90;1.00
18779;DHT22;9518;51.720;14.384;2023-12-20T12:15:55;6.80;1.00
18779;DHT22;9518;51.720;14.384;2023-12-20T12:18:22;6.90;99.90
18779;DHT22;9518;51.720;14.384;2023-12-20T12:20:49;6.90;99.90
18779;DHT22;9518;51.720;14.384;2023-12-20T12:23:23;7.00;99.90
18779;DHT22;9518;51.720;14.384;2023-12-20T12:25:50;7.00;99.90
18779;DHT22;9518;51.720;14.384;2023-12-20T12:28:18;6.90;99.90
18779;DHT22;9518;51.720;14.384;2023-12-20T12:30:57;6.90;99.90
18779;DHT22;9518;51.720;14.384;2023-12-20T12:33:24;6.80;99.90
18779;DHT22;9518;51.720;14.384;2023-12-20T12:35:52;6.80;99.90
18779;DHT22;9518;51.720;14.384;2023-12-20T12:38:20;6.80;99.90
18779;DHT22;9518;51.720;14.384;2023-12-20T12:40:48;6.80;99.90
18779;DHT22;9518;51.720;14.384;2023-12-20T12:43:16;6.80;99.90
18779;DHT22;9518;51.720;14.384;2023-12-20T12:45:43;6.80;99.90
18779;DHT22;9518;51.720;14.384;2023-12-20T12:48:12;6.80;99.90
18779;DHT22;9518;51.720;14.384;2023-12-20T12:50:39;6.80;99.90
18779;DHT22;9518;51.720;14.384;2023-12-20T12:53:07;6.80;45.10
18779;DHT22;9518;51.720;14.384;2023-12-20T12:55:35;6.80;75.20
18779;DHT22;9518;51.720;14.384;2023-12-20T12:58:02;6.80;80.80
18779;DHT22;9518;51.720;14.384;2023-12-20T13:00:31;6.80;61.50
18779;DHT22;9518;51.720;14.384;2023-12-20T13:03:13;6.80;99.90
18779;DHT22;9518;51.720;14.384;2023-12-20T13:05:41;6.80;3.30
18779;DHT22;9518;51.720;14.384;2023-12-20T13:08:12;6.80;1.00
18779;DHT22;9518;51.720;14.384;2023-12-20T13:10:40;6.80;1.00
18779;DHT22;9518;51.720;14.384;2023-12-20T13:13:07;6.80;47.70
18779;DHT22;9518;51.720;14.384;2023-12-20T13:15:34;6.90;1.00
18779;DHT22;9518;51.720;14.384;2023-12-20T13:18:01;6.80;1.00
18779;DHT22;9518;51.720;14.384;2023-12-20T13:20:31;6.90;1.00
18779;DHT22;9518;51.720;14.384;2023-12-20T13:22:58;6.80;1.00
18779;DHT22;9518;51.720;14.384;2023-12-20T13:25:27;6.80;99.90
18779;DHT22;9518;51.720;14.384;2023-12-20T13:27:54;6.70;99.90
18779;DHT22;9518;51.720;14.384;2023-12-20T13:30:21;6.70;99.90
18779;DHT22;9518;51.720;14.384;2023-12-20T13:32:49;6.60;99.90
18779;DHT22;9518;51.720;14.384;2023-12-20T13:35:16;6.60;99.90
18779;DHT22;9518;51.720;14.384;2023-12-20T13:37:46;6.50;1.00
18779;DHT22;9518;51.720;14.384;2023-12-20T13:40:15;6.50;1.00
18779;DHT22;9518;51.720;14.384;2023-12-20T13:42:43;6.50;1.00
18779;DHT22;9518;51.720;14.384;2023-12-20T13:45:11;6.50;1.00
18779;DHT22;9518;51.720;14.384;2023-12-20T13:47:40;6.50;1.00
18779;DHT22;9518;51.720;14.384;2023-12-20T13:50:08;6.50;99.90
18779;DHT22;9518;51.720;14.384;2023-12-20T13:52:35;6.50;1.00
18779;DHT22;9518;51.720;14.384;2023-12-20T13:55:05;6.50;1.00
18779;DHT22;9518;51.720;14.384;2023-12-20T13:57:33;6.50;1.00
18779;DHT22;9518;51.720;14.384;2023-12-20T14:00:04;6.50;1.00
18779;DHT22;9518;51.720;14.384;2023-12-20T14:02:31;6.60;1.00
18779;DHT22;9518;51.720;14.384;2023-12-20T14:04:58;6.60;99.90
18779;DHT22;9518;51.720;14.384;2023-12-20T14:07:25;6.60;99.90
18779;DHT22;9518;51.720;14.384;2023-12-20T14:09:55;6.60;99.90
18779;DHT22;9518;51.720;14.384;2023-12-20T14:12:23;6.60;99.90
18779;DHT22;9518;51.720;14.384;2023-12-20T14:14:50;6.60;99.90
18779;DHT22;9518;51.720;14.384;2023-12-20T14:17:17;6.60;31.70
18779;DHT22;9518;51.720;14.384;2023-12-20T14:19:44;6.60;99.90
18779;DHT22;9518;51.720;14.384;2023-12-20T14:22:14;6.60;99.90
18779;DHT22;9518;51.720;14.384;2023-12-20T14:24:44;6.60;99.90
18779;DHT22;9518;51.720;14.384;2023-12-20T14:27:11;6.50;99.90
18779;DHT22;9518;51.720;14.384;2023-12-20T14:29:40;6.60;22.60
18779;DHT22;9518;51.720;14.384;2023-12-20T14:32:08;6.70;99.90
18779;DHT22;9518;51.720;14.384;2023-12-20T14:34:34;6.70;1.00
18779;DHT22;9518;51.720;14.384;2023-12-20T14:37:02;6.70;1.00
18779;DHT22;9518;51.720;14.384;2023-12-20T14:39:29;6.80;1.00
18779;DHT22;9518;51.720;14.384;2023-12-20T14:41:56;6.80;1.00
18779;DHT22;9518;51.720;14.384;2023-12-20T14:44:23;6.80;1.00
18779;DHT22;9518;51.720;14.384;2023-12-20T14:46:52;6.80;1.00
18779;DHT22;9518;51.720;14.384;2023-12-20T14:49:19;6.80;1.00
18779;DHT22;9518;51.720;14.384;2023-12-20T14:51:45;6.80;1.00
18779;DHT22;9518;51.720;14.384;2023-12-20T14:54:13;6.80;1.00
18779;DHT22;9518;51.720;14.384;2023-12-20T14:56:42;6.80;1.00
18779;DHT22;9518;51.720;14.384;2023-12-20T14:59:09;6.90;1.00
18779;DHT22;9518;51.720;14.384;2023-12-20T15:01:36;6.80;1.00
18779;DHT22;9518;51.720;14.384;2023-12-20T15:04:08;6.90;1.00
18779;DHT22;9518;51.720;14.384;2023-12-20T15:06:35;6.90;1.00
18779;DHT22;9518;51.720;14.384;2023-12-20T15:09:03;6.90;1.00
18779;DHT22;9518;51.720;14.384;2023-12-20T15:11:30;6.90;1.00
18779;DHT22;9518;51.720;14.384;2023-12-20T15:13:58;6.90;1.00
18779;DHT22;9518;51.720;14.384;2023-12-20T15:16:26;6.90;1.00
18779;DHT22;9518;51.720;14.384;2023-12-20T15:18:54;6.90;1.00
18779;DHT22;9518;51.720;14.384;2023-12-20T15:21:23;6.90;1.00
18779;DHT22;9518;51.720;14.384;2023-12-20T15:23:59;6.90;1.00
18779;DHT22;9518;51.720;14.384;2023-12-20T15:26:38;6.90;1.00
18779;DHT22;9518;51.720;14.384;2023-12-20T15:29:06;6.90;1.00
18779;DHT22;9518;51.720;14.384;2023-12-20T15:31:34;6.90;1.00
18779;DHT22;9518;51.720;14.384;2023-12-20T15:34:03;6.80;1.00
18779;DHT22;9518;51.720;14.384;2023-12-20T15:36:32;6.80;1.00
18779;DHT22;9518;51.720;14.384;2023-12-20T15:39:01;6.90;1.50
18779;DHT22;9518;51.720;14.384;2023-12-20T15:41:28;6.90;27.80
18779;DHT22;9518;51.720;14.384;2023-12-20T15:43:55;6.90;57.20
18779;DHT22;9518;51.720;14.384;2023-12-20T15:46:23;6.90;38.00
18779;DHT22;9518;51.720;14.384;2023-12-20T15:48:50;6.80;57.10
18779;DHT22;9518;51.720;14.384;2023-12-20T15:51:21;6.80;99.90
18779;DHT22;9518;51.720;14.384;2023-12-20T15:53:49;6.80;99.90
18779;DHT22;9518;51.720;14.384;2023-12-20T15:56:16;6.70;99.90